createdAt,value
2022-12-25T00:00:30.830Z,16.85
2022-12-25T00:02:57.918Z,16.84
2022-12-25T00:05:24.833Z,16.80
2022-12-25T00:07:51.674Z,16.78
2022-12-25T00:10:19.282Z,16.79
2022-12-25T00:12:45.956Z,16.74
2022-12-25T00:15:12.520Z,16.74
2022-12-25T00:17:39.106Z,16.73
2022-12-25T00:20:06.048Z,16.71
2022-12-25T00:22:32.677Z,16.67
2022-12-25T00:24:59.208Z,16.69
2022-12-25T00:27:25.808Z,16.67
2022-12-25T00:29:52.332Z,16.64
2022-12-25T00:32:18.955Z,16.67
2022-12-25T00:34:47.433Z,16.69
2022-12-25T00:37:14.045Z,16.71
2022-12-25T00:39:40.707Z,16.67
2022-12-25T00:42:19.201Z,16.67
2022-12-25T00:44:46.669Z,16.65
2022-12-25T00:47:13.318Z,16.62
2022-12-25T00:49:40.128Z,16.61
2022-12-25T00:52:06.764Z,16.60
2022-12-25T00:54:33.341Z,16.56
2022-12-25T00:56:59.943Z,16.58
2022-12-25T00:59:26.582Z,16.55
2022-12-25T01:01:53.242Z,16.68
2022-12-25T01:04:19.982Z,16.64
2022-12-25T01:06:46.505Z,16.62
2022-12-25T01:09:31.529Z,16.50
2022-12-25T01:11:58.189Z,16.53
2022-12-25T01:14:24.751Z,16.49
2022-12-25T01:16:51.511Z,16.42
2022-12-25T01:19:18.086Z,16.38
2022-12-25T01:21:44.680Z,16.39
2022-12-25T01:24:11.251Z,16.37
2022-12-25T01:26:37.893Z,16.37
2022-12-25T01:29:05.587Z,16.36
2022-12-25T01:31:32.529Z,16.33
2022-12-25T01:33:59.241Z,16.32
2022-12-25T01:36:26.436Z,16.36
2022-12-25T01:38:53.747Z,16.38
2022-12-25T01:41:22.604Z,16.33
2022-12-25T01:43:57.982Z,16.36
2022-12-25T01:46:24.762Z,16.37
2022-12-25T01:48:52.019Z,16.36
2022-12-25T01:51:21.680Z,16.32
2022-12-25T01:53:48.389Z,16.25
2022-12-25T01:56:14.988Z,16.27
2022-12-25T01:58:41.781Z,16.24
2022-12-25T02:01:08.543Z,16.15
2022-12-25T02:03:35.208Z,16.12
2022-12-25T02:06:03.764Z,16.10
2022-12-25T02:08:30.577Z,16.11
2022-12-25T02:10:57.149Z,16.03
2022-12-25T02:13:23.766Z,16.03
2022-12-25T02:16:09.154Z,15.99
2022-12-25T02:18:48.103Z,15.96
2022-12-25T02:21:33.532Z,15.89
2022-12-25T02:24:09.148Z,15.85
2022-12-25T02:26:48.417Z,15.81
2022-12-25T02:29:25.772Z,15.84
2022-12-25T02:32:02.410Z,15.78
2022-12-25T02:34:31.962Z,15.71
2022-12-25T02:37:23.519Z,15.77
2022-12-25T02:40:05.487Z,15.74
2022-12-25T02:42:57.276Z,15.78
2022-12-25T02:45:46.750Z,15.69
2022-12-25T02:48:32.047Z,15.68
2022-12-25T02:51:20.386Z,15.64
2022-12-25T02:54:06.433Z,15.66
2022-12-25T02:56:53.403Z,15.64
2022-12-25T02:59:39.286Z,15.59
2022-12-25T03:02:25.117Z,15.54
2022-12-25T03:05:12.316Z,15.54
2022-12-25T03:07:41.613Z,15.40
2022-12-25T03:10:28.605Z,15.30
2022-12-25T03:12:59.202Z,15.26
2022-12-25T03:15:44.511Z,15.08
2022-12-25T03:18:13.485Z,15.12
2022-12-25T03:20:58.958Z,15.21
2022-12-25T03:23:48.028Z,15.08
2022-12-25T03:26:33.126Z,15.02
2022-12-25T03:28:59.882Z,14.93
2022-12-25T03:31:31.916Z,14.81
2022-12-25T03:34:34.593Z,14.79
2022-12-25T03:37:19.472Z,14.63
2022-12-25T03:40:30.681Z,14.66
2022-12-25T03:43:20.931Z,14.47
2022-12-25T03:46:10.338Z,14.41
2022-12-25T03:48:57.169Z,14.53
2022-12-25T03:51:44.949Z,14.40
2022-12-25T03:54:31.669Z,14.50
2022-12-25T03:57:16.930Z,14.55
2022-12-25T04:00:02.077Z,14.55
2022-12-25T04:02:54.980Z,14.59
2022-12-25T04:05:40.123Z,14.61
2022-12-25T04:08:25.413Z,14.57
2022-12-25T04:11:10.784Z,14.61
2022-12-25T04:13:56.012Z,14.61
2022-12-25T04:16:41.338Z,14.50
2022-12-25T04:19:27.598Z,14.54
2022-12-25T04:22:12.561Z,14.48
2022-12-25T04:24:57.852Z,14.45
2022-12-25T04:27:42.978Z,14.47
2022-12-25T04:30:28.347Z,14.47
2022-12-25T04:33:17.120Z,14.48
2022-12-25T04:36:06.633Z,14.26
2022-12-25T04:38:33.356Z,14.17
2022-12-25T04:41:00.231Z,14.28
2022-12-25T04:43:27.030Z,14.17
2022-12-25T04:45:57.804Z,14.00
2022-12-25T04:48:24.615Z,14.08
2022-12-25T04:50:51.245Z,14.09
2022-12-25T04:53:18.075Z,13.97
2022-12-25T04:55:44.671Z,14.07
2022-12-25T04:58:11.287Z,13.94
2022-12-25T05:00:38.037Z,13.90
2022-12-25T05:03:04.873Z,13.77
2022-12-25T05:05:31.560Z,13.88
2022-12-25T05:07:58.425Z,13.84
2022-12-25T05:10:25.110Z,13.74
2022-12-25T05:12:51.693Z,13.77
2022-12-25T05:15:18.225Z,13.62
2022-12-25T05:17:44.873Z,13.71
2022-12-25T05:20:11.494Z,13.70
2022-12-25T05:22:38.020Z,13.71
2022-12-25T05:25:04.712Z,13.76
2022-12-25T05:27:31.351Z,13.79
2022-12-25T05:29:57.994Z,13.74
2022-12-25T05:32:24.651Z,13.85
2022-12-25T05:34:51.172Z,13.89
2022-12-25T05:37:17.758Z,13.96
2022-12-25T05:39:44.279Z,13.97
2022-12-25T05:42:10.870Z,14.00
2022-12-25T05:44:37.448Z,14.02
2022-12-25T05:47:04.192Z,13.99
2022-12-25T05:49:30.924Z,13.71
2022-12-25T05:51:57.489Z,13.88
2022-12-25T05:54:24.083Z,13.75
2022-12-25T05:56:50.733Z,13.78
2022-12-25T05:59:17.309Z,13.83
2022-12-25T06:01:44.056Z,13.84
2022-12-25T06:04:13.022Z,13.88
2022-12-25T06:06:40.190Z,13.92
2022-12-25T06:09:06.784Z,13.98
2022-12-25T06:11:33.369Z,14.05
2022-12-25T06:13:59.888Z,14.08
2022-12-25T06:16:26.527Z,14.12
2022-12-25T06:18:53.213Z,14.13
2022-12-25T06:21:19.790Z,14.05
2022-12-25T06:23:46.547Z,14.01
2022-12-25T06:26:16.264Z,13.98
2022-12-25T06:28:43.193Z,14.04
2022-12-25T06:31:11.010Z,14.05
2022-12-25T06:33:38.299Z,13.99
2022-12-25T06:36:11.912Z,13.86
2022-12-25T06:38:38.897Z,13.74
2022-12-25T06:41:10.391Z,13.78
2022-12-25T06:43:37.372Z,13.78
2022-12-25T06:46:05.059Z,13.83
2022-12-25T06:48:32.902Z,13.84
2022-12-25T06:50:59.530Z,13.85
2022-12-25T06:53:27.206Z,13.77
2022-12-25T06:55:53.734Z,13.79
2022-12-25T06:58:20.528Z,13.72
2022-12-25T07:00:47.123Z,13.67
2022-12-25T07:03:18.462Z,13.71
2022-12-25T07:05:47.153Z,13.70
2022-12-25T07:08:13.827Z,13.77
2022-12-25T07:10:40.349Z,13.78
2022-12-25T07:13:07.056Z,13.84
2022-12-25T07:15:33.617Z,13.89
2022-12-25T07:18:00.280Z,13.85
2022-12-25T07:20:27.006Z,13.87
2022-12-25T07:22:53.594Z,13.81
2022-12-25T07:25:20.190Z,13.82
2022-12-25T07:27:46.790Z,13.79
2022-12-25T07:30:13.493Z,13.77
2022-12-25T07:32:41.541Z,13.82
2022-12-25T07:35:09.873Z,13.85
2022-12-25T07:37:36.413Z,13.87
2022-12-25T07:40:03.301Z,13.90
2022-12-25T07:42:29.864Z,14.00
2022-12-25T07:44:56.519Z,14.07
2022-12-25T07:47:23.111Z,14.10
2022-12-25T07:49:49.681Z,14.19
2022-12-25T07:52:16.323Z,14.25
2022-12-25T07:54:42.925Z,14.28
2022-12-25T07:57:09.461Z,14.44
2022-12-25T07:59:36.035Z,14.52
2022-12-25T08:02:02.835Z,14.68
2022-12-25T08:04:29.685Z,14.74
2022-12-25T08:06:56.296Z,14.79
2022-12-25T08:09:22.943Z,14.89
2022-12-25T08:11:49.523Z,14.91
2022-12-25T08:14:16.180Z,14.96
2022-12-25T08:16:42.801Z,15.06
2022-12-25T08:19:09.562Z,15.15
2022-12-25T08:21:36.186Z,15.17
2022-12-25T08:24:03.316Z,15.16
2022-12-25T08:26:30.137Z,15.14
2022-12-25T08:28:56.740Z,15.15
2022-12-25T08:31:25.309Z,15.19
2022-12-25T08:33:53.872Z,15.26
2022-12-25T08:36:20.501Z,15.27
2022-12-25T08:38:47.422Z,15.33
2022-12-25T08:41:14.659Z,15.54
2022-12-25T08:43:41.517Z,15.63
2022-12-25T08:46:08.599Z,15.69
2022-12-25T08:48:35.687Z,15.71
2022-12-25T08:51:02.377Z,15.86
2022-12-25T08:53:29.004Z,15.91
2022-12-25T08:56:06.194Z,15.96
2022-12-25T08:58:32.947Z,16.06
2022-12-25T09:01:00.031Z,16.17
2022-12-25T09:03:26.994Z,16.19
2022-12-25T09:05:54.160Z,16.26
2022-12-25T09:08:21.952Z,16.37
2022-12-25T09:10:48.831Z,16.46
2022-12-25T09:13:15.401Z,16.61
2022-12-25T09:15:42.090Z,16.76
2022-12-25T09:18:08.769Z,16.79
2022-12-25T09:20:35.399Z,16.91
2022-12-25T09:23:02.033Z,16.85
2022-12-25T09:25:28.652Z,16.94
2022-12-25T09:27:55.866Z,17.03
2022-12-25T09:30:22.544Z,16.91
2022-12-25T09:32:49.153Z,17.12
2022-12-25T09:35:17.615Z,17.17
2022-12-25T09:37:44.483Z,17.26
2022-12-25T09:40:15.369Z,17.40
2022-12-25T09:42:42.265Z,17.43
2022-12-25T09:45:18.040Z,17.54
2022-12-25T09:47:45.812Z,17.60
2022-12-25T09:50:15.918Z,17.77
2022-12-25T09:52:57.836Z,17.88
2022-12-25T09:55:25.487Z,17.97
2022-12-25T09:57:54.289Z,18.03
2022-12-25T10:00:22.529Z,18.10
2022-12-25T10:03:07.209Z,18.18
2022-12-25T10:05:40.149Z,18.24
2022-12-25T10:08:12.886Z,18.22
2022-12-25T10:10:39.408Z,18.27
2022-12-25T10:13:08.997Z,18.37
2022-12-25T10:15:43.465Z,18.42
2022-12-25T10:18:35.258Z,18.52
2022-12-25T10:21:06.852Z,18.59
2022-12-25T10:23:48.558Z,18.68
2022-12-25T10:26:17.181Z,18.69
2022-12-25T10:28:45.633Z,18.83
2022-12-25T10:31:20.234Z,18.89
2022-12-25T10:33:48.011Z,19.00
2022-12-25T10:36:15.971Z,19.10
2022-12-25T10:38:42.568Z,19.20
2022-12-25T10:41:09.098Z,19.30
2022-12-25T10:43:38.819Z,19.29
2022-12-25T10:46:12.584Z,19.43
2022-12-25T10:48:42.252Z,19.49
2022-12-25T10:51:08.911Z,19.42
2022-12-25T10:53:42.943Z,19.57
2022-12-25T10:56:18.850Z,19.69
2022-12-25T10:58:45.571Z,19.79
2022-12-25T11:01:12.551Z,19.82
2022-12-25T11:03:40.622Z,19.90
2022-12-25T11:06:20.357Z,19.94
2022-12-25T11:08:51.306Z,20.01
2022-12-25T11:11:19.768Z,20.05
2022-12-25T11:13:54.779Z,20.04
2022-12-25T11:16:40.847Z,20.16
2022-12-25T11:19:26.045Z,20.27
2022-12-25T11:21:54.262Z,20.34
2022-12-25T11:24:22.074Z,20.42
2022-12-25T11:26:49.897Z,20.34
2022-12-25T11:29:31.024Z,20.44
2022-12-25T11:31:59.764Z,20.52
2022-12-25T11:34:26.269Z,20.60
2022-12-25T11:36:52.907Z,20.68
2022-12-25T11:39:19.491Z,20.72
2022-12-25T11:41:46.454Z,20.81
2022-12-25T11:44:22.976Z,20.83
2022-12-25T11:46:52.271Z,20.88
2022-12-25T11:49:21.098Z,20.93
2022-12-25T11:51:50.085Z,20.97
2022-12-25T11:54:26.237Z,21.04
2022-12-25T11:56:53.219Z,21.03
2022-12-25T11:59:40.032Z,21.05
2022-12-25T12:02:42.224Z,21.05
2022-12-25T12:05:17.781Z,21.02
2022-12-25T12:08:03.740Z,21.00
2022-12-25T12:10:42.318Z,21.04
2022-12-25T12:13:16.713Z,21.05
2022-12-25T12:15:43.397Z,21.03
2022-12-25T12:18:18.776Z,21.02
2022-12-25T12:20:45.581Z,21.04
2022-12-25T12:23:16.597Z,21.04
2022-12-25T12:25:44.716Z,20.99
2022-12-25T12:28:20.617Z,21.06
2022-12-25T12:30:56.924Z,21.08
2022-12-25T12:33:24.379Z,21.09
2022-12-25T12:35:51.412Z,21.05
2022-12-25T12:38:19.883Z,21.07
2022-12-25T12:40:58.749Z,21.12
2022-12-25T12:43:45.647Z,21.14
2022-12-25T12:46:31.392Z,21.13
2022-12-25T12:49:20.050Z,21.14
2022-12-25T12:51:46.649Z,21.06
2022-12-25T12:54:21.575Z,21.08
2022-12-25T12:56:57.297Z,21.12
2022-12-25T12:59:24.726Z,21.05
2022-12-25T13:02:08.780Z,21.06
2022-12-25T13:04:45.948Z,21.09
2022-12-25T13:07:32.316Z,21.12
2022-12-25T13:09:59.030Z,21.13
2022-12-25T13:12:25.785Z,21.11
2022-12-25T13:14:52.561Z,21.15
2022-12-25T13:17:24.380Z,21.20
2022-12-25T13:19:54.519Z,21.23
2022-12-25T13:22:32.449Z,21.22
2022-12-25T13:25:00.604Z,21.24
2022-12-25T13:27:28.799Z,21.28
2022-12-25T13:29:55.869Z,21.29
2022-12-25T13:32:24.861Z,21.27
2022-12-25T13:34:52.149Z,21.29
2022-12-25T13:37:20.709Z,21.30
2022-12-25T13:39:51.583Z,21.24
2022-12-25T13:42:20.766Z,21.24
2022-12-25T13:44:47.360Z,21.20
2022-12-25T13:47:13.956Z,21.21
2022-12-25T13:49:40.533Z,21.23
2022-12-25T13:52:11.156Z,21.15
2022-12-25T13:54:37.760Z,21.11
2022-12-25T13:57:07.900Z,21.13
2022-12-25T13:59:37.227Z,21.12
2022-12-25T14:02:04.470Z,21.12
2022-12-25T14:04:31.132Z,21.10
2022-12-25T14:07:08.634Z,21.08
2022-12-25T14:09:35.865Z,21.05
2022-12-25T14:12:03.637Z,21.05
2022-12-25T14:14:30.560Z,21.04
2022-12-25T14:16:58.518Z,21.03
2022-12-25T14:19:27.145Z,21.03
2022-12-25T14:21:56.469Z,21.04
2022-12-25T14:24:24.493Z,21.01
2022-12-25T14:26:56.722Z,20.98
2022-12-25T14:29:28.209Z,20.97
2022-12-25T14:31:57.135Z,20.94
2022-12-25T14:34:25.024Z,20.91
2022-12-25T14:36:52.441Z,20.84
2022-12-25T14:39:28.316Z,20.82
2022-12-25T14:41:55.133Z,20.79
2022-12-25T14:44:35.060Z,20.79
2022-12-25T14:47:06.165Z,20.75
2022-12-25T14:49:32.930Z,20.71
2022-12-25T14:51:59.547Z,20.71
2022-12-25T14:54:26.763Z,20.69
2022-12-25T14:56:56.094Z,20.65
2022-12-25T14:59:26.331Z,20.66
2022-12-25T15:01:58.546Z,20.63
2022-12-25T15:04:27.044Z,20.60
2022-12-25T15:07:01.232Z,20.57
2022-12-25T15:09:29.942Z,20.52
2022-12-25T15:11:56.775Z,20.46
2022-12-25T15:14:24.191Z,20.46
2022-12-25T15:16:52.593Z,20.43
2022-12-25T15:19:25.938Z,20.42
2022-12-25T15:21:55.726Z,20.41
2022-12-25T15:24:22.307Z,20.38
2022-12-25T15:26:48.941Z,20.36
2022-12-25T15:29:15.503Z,20.31
2022-12-25T15:31:42.202Z,20.30
2022-12-25T15:34:20.827Z,20.28
2022-12-25T15:36:47.940Z,20.25
2022-12-25T15:39:14.494Z,20.23
2022-12-25T15:41:59.781Z,20.19
2022-12-25T15:44:26.530Z,20.16
2022-12-25T15:46:53.399Z,20.12
2022-12-25T15:49:20.157Z,20.09
2022-12-25T15:51:47.265Z,20.06
2022-12-25T15:54:14.035Z,20.03
2022-12-25T15:56:45.524Z,19.99
2022-12-25T15:59:13.136Z,19.94
2022-12-25T16:01:41.454Z,19.88
2022-12-25T16:04:08.131Z,19.82
2022-12-25T16:06:34.693Z,19.78
2022-12-25T16:09:01.305Z,19.72
2022-12-25T16:11:27.889Z,19.68
2022-12-25T16:13:54.613Z,19.64
2022-12-25T16:16:22.832Z,19.57
2022-12-25T16:18:49.530Z,19.52
2022-12-25T16:21:17.988Z,19.48
2022-12-25T16:23:44.593Z,19.43
2022-12-25T16:26:11.259Z,19.40
2022-12-25T16:28:37.858Z,19.36
2022-12-25T16:31:04.537Z,19.30
2022-12-25T16:33:31.690Z,19.24
2022-12-25T16:35:58.442Z,19.19
2022-12-25T16:38:25.034Z,19.17
2022-12-25T16:40:55.032Z,19.15
2022-12-25T16:43:24.173Z,19.13
2022-12-25T16:45:50.967Z,19.10
2022-12-25T16:48:17.707Z,19.05
2022-12-25T16:50:44.228Z,19.02
2022-12-25T16:53:12.445Z,18.97
2022-12-25T16:55:39.156Z,18.95
2022-12-25T16:58:06.287Z,18.91
2022-12-25T17:00:32.847Z,18.88
2022-12-25T17:03:00.160Z,18.86
2022-12-25T17:05:27.112Z,18.80
2022-12-25T17:07:53.743Z,18.79
2022-12-25T17:10:21.430Z,18.72
2022-12-25T17:12:48.112Z,18.71
2022-12-25T17:15:14.870Z,18.67
2022-12-25T17:17:41.785Z,18.62
2022-12-25T17:20:08.573Z,18.58
2022-12-25T17:22:35.218Z,18.51
2022-12-25T17:25:01.828Z,18.47
2022-12-25T17:27:28.447Z,18.44
2022-12-25T17:29:55.066Z,18.36
2022-12-25T17:32:21.684Z,18.40
2022-12-25T17:34:48.261Z,18.38
2022-12-25T17:37:14.844Z,18.35
2022-12-25T17:39:41.414Z,18.31
2022-12-25T17:42:08.063Z,18.29
2022-12-25T17:44:34.644Z,18.26
2022-12-25T17:47:01.373Z,18.26
2022-12-25T17:49:28.040Z,18.23
2022-12-25T17:51:54.709Z,18.24
2022-12-25T17:54:21.275Z,18.21
2022-12-25T17:56:48.125Z,18.18
2022-12-25T17:59:18.633Z,18.15
2022-12-25T18:01:46.142Z,18.13
2022-12-25T18:04:12.849Z,18.10
2022-12-25T18:06:39.588Z,18.07
2022-12-25T18:09:06.882Z,18.03
2022-12-25T18:11:33.705Z,18.02
2022-12-25T18:14:04.555Z,18.01
2022-12-25T18:16:33.217Z,17.98
2022-12-25T18:18:59.897Z,17.94
2022-12-25T18:21:26.593Z,17.93
2022-12-25T18:23:53.144Z,17.91
2022-12-25T18:26:20.460Z,17.88
2022-12-25T18:28:47.759Z,17.82
2022-12-25T18:31:16.908Z,17.82
2022-12-25T18:33:44.655Z,17.78
2022-12-25T18:36:16.211Z,17.78
2022-12-25T18:38:43.166Z,17.79
2022-12-25T18:41:10.297Z,17.76
2022-12-25T18:43:53.497Z,17.78
2022-12-25T18:46:24.249Z,17.75
2022-12-25T18:48:51.499Z,17.72
2022-12-25T18:51:18.234Z,17.69
2022-12-25T18:53:44.794Z,17.69
2022-12-25T18:56:13.095Z,17.67
2022-12-25T18:58:39.648Z,17.65
2022-12-25T19:01:17.348Z,17.65
2022-12-25T19:03:44.776Z,17.58
2022-12-25T19:06:25.337Z,17.53
2022-12-25T19:08:52.132Z,17.43
2022-12-25T19:11:19.291Z,17.41
2022-12-25T19:13:46.240Z,17.41
2022-12-25T19:16:13.334Z,17.42
2022-12-25T19:18:40.490Z,17.43
2022-12-25T19:21:08.039Z,17.43
2022-12-25T19:23:34.707Z,17.42
2022-12-25T19:26:03.253Z,17.44
2022-12-25T19:28:29.921Z,17.44
2022-12-25T19:30:58.889Z,17.43
2022-12-25T19:33:25.518Z,17.42
2022-12-25T19:35:52.093Z,17.36
2022-12-25T19:38:20.149Z,17.33
2022-12-25T19:41:00.354Z,17.31
2022-12-25T19:43:31.316Z,17.29
2022-12-25T19:45:59.143Z,17.26
2022-12-25T19:48:25.987Z,17.22
2022-12-25T19:50:52.669Z,17.21
2022-12-25T19:53:21.460Z,17.19
2022-12-25T19:55:48.041Z,17.17
2022-12-25T19:58:14.597Z,17.16
2022-12-25T20:00:41.946Z,17.12
2022-12-25T20:03:09.152Z,17.11
2022-12-25T20:05:35.871Z,17.06
2022-12-25T20:08:02.667Z,17.00
2022-12-25T20:10:29.374Z,16.96
2022-12-25T20:12:55.985Z,16.94
2022-12-25T20:15:22.580Z,16.90
2022-12-25T20:17:49.202Z,16.95
2022-12-25T20:20:15.894Z,16.95
2022-12-25T20:22:42.507Z,16.93
2022-12-25T20:25:17.179Z,16.94
2022-12-25T20:27:43.793Z,16.98
2022-12-25T20:30:10.607Z,16.99
2022-12-25T20:32:37.245Z,17.01
2022-12-25T20:35:04.309Z,16.94
2022-12-25T20:37:31.161Z,17.00
2022-12-25T20:39:57.992Z,16.89
2022-12-25T20:42:24.639Z,16.98
2022-12-25T20:44:51.304Z,17.01
2022-12-25T20:47:17.862Z,17.02
2022-12-25T20:49:46.532Z,17.00
2022-12-25T20:52:13.185Z,16.95
2022-12-25T20:54:39.718Z,16.93
2022-12-25T20:57:06.406Z,16.92
2022-12-25T20:59:37.712Z,16.82
2022-12-25T21:02:04.922Z,16.83
2022-12-25T21:04:31.699Z,16.83
2022-12-25T21:06:58.423Z,16.83
2022-12-25T21:09:25.036Z,16.78
2022-12-25T21:11:51.612Z,16.83
2022-12-25T21:14:18.212Z,16.76
2022-12-25T21:16:45.272Z,16.71
2022-12-25T21:19:12.387Z,16.73
2022-12-25T21:21:43.623Z,16.75
2022-12-25T21:24:10.680Z,16.70
2022-12-25T21:26:39.884Z,16.66
2022-12-25T21:29:08.424Z,16.56
2022-12-25T21:31:54.966Z,16.55
2022-12-25T21:34:21.816Z,16.52
2022-12-25T21:36:48.711Z,16.50
2022-12-25T21:39:15.690Z,16.46
2022-12-25T21:41:42.311Z,16.43
2022-12-25T21:44:09.195Z,16.41
2022-12-25T21:46:35.784Z,16.39
2022-12-25T21:49:02.370Z,16.38
2022-12-25T21:51:56.435Z,16.37
2022-12-25T21:54:23.535Z,16.33
2022-12-25T21:56:50.292Z,16.32
2022-12-25T21:59:18.128Z,16.30
2022-12-25T22:01:45.329Z,16.30
2022-12-25T22:04:13.485Z,16.15
2022-12-25T22:06:58.849Z,16.19
2022-12-25T22:09:25.684Z,16.21
2022-12-25T22:12:10.708Z,16.14
2022-12-25T22:14:55.448Z,16.15
2022-12-25T22:17:42.469Z,16.12
2022-12-25T22:20:10.792Z,15.99
2022-12-25T22:22:37.295Z,15.91
2022-12-25T22:25:04.893Z,15.84
2022-12-25T22:27:35.797Z,15.90
2022-12-25T22:30:02.509Z,15.94
2022-12-25T22:32:29.156Z,15.92
2022-12-25T22:34:56.346Z,15.91
2022-12-25T22:37:36.154Z,15.90
2022-12-25T22:40:04.093Z,15.88
2022-12-25T22:42:30.997Z,15.89
2022-12-25T22:44:57.764Z,15.92
2022-12-25T22:47:24.476Z,15.90
2022-12-25T22:49:51.119Z,15.86
2022-12-25T22:52:17.816Z,15.86
2022-12-25T22:54:44.499Z,15.82
2022-12-25T22:57:11.097Z,15.78
2022-12-25T22:59:37.719Z,15.74
2022-12-25T23:02:05.416Z,15.84
2022-12-25T23:04:32.150Z,15.79
2022-12-25T23:06:58.722Z,15.84
2022-12-25T23:09:27.988Z,15.80
2022-12-25T23:11:58.785Z,15.80
2022-12-25T23:14:40.953Z,15.78
2022-12-25T23:17:29.046Z,15.79
2022-12-25T23:20:14.911Z,15.70
2022-12-25T23:23:00.623Z,15.70
2022-12-25T23:25:45.956Z,15.74
2022-12-25T23:28:12.938Z,15.62
2022-12-25T23:30:39.513Z,15.67
2022-12-25T23:33:06.120Z,15.69
2022-12-25T23:35:32.741Z,15.74
2022-12-25T23:38:00.280Z,15.74
2022-12-25T23:40:26.822Z,15.72
2022-12-25T23:42:53.381Z,15.75
2022-12-25T23:45:20.010Z,15.79
2022-12-25T23:47:46.554Z,15.87
2022-12-25T23:50:13.195Z,15.89
2022-12-25T23:52:39.933Z,15.90
2022-12-25T23:55:06.860Z,15.95
2022-12-25T23:57:33.702Z,16.00
